LIRNLIMF

Guest
Details From LIRN - Napoli-Capodichino "Ugo Niutta"
To LIMF - Torino-Caselle "Sandro Pertini"
Flight Number -
Tags decoded
Created
Modified
Stats Distance 393 nm / 729 km
Max Altitude 0 ft / 0 m
Waypoints 5
Social Downloads 0
Likes 0
Share

Download

Looking for another format? Having issues loading an existing format? Contact us
Advertisement - Login to hide

Notes

Requested: LIRN LAT GUDLU SUPERIORE ANAKI LIMF Unmatched points: SUPERIORE

Route

LIRN LAT GUDLU ANAKI LIMF

ID Type Via Altitude (ft/m) Position (lat/lon) Dist (leg/tot) Name
O LIRN APT - 0 / 0 40.88600 / 14.29080 - / 0 nm Napoli-Capodichino "Ugo Niutta"
LAT VOR - 0 / 0 41.54110 / 12.91810 73 / 73 nm LATINA
GUDLU FIX - 0 / 0 43.59060 / 9.94028 180 / 253 nm
ANAKI FIX - 0 / 0 44.20110 / 8.72556 64 / 317 nm
O LIMF APT - 0 / 0 45.20080 / 7.64964 75 / 393 nm Torino-Caselle "Sandro Pertini"

Altitude Profile

Advertisement - Login to hide

Weather


0- 5 10 15 20 25 30 35+ Temperature / °C

Clouds and Precipitation
Forecast for 2024-04-15 18:00 UTC. Updated 2 months ago

Ground ~20,000 ft ~40,000 ft Winds

LIRN

Details ICAO LIRN (NAP)
Name Napoli-Capodichino "Ugo Niutta"
Region Italy
Timezone Europe/Rome (UTC+2.0)
Stats Elevation 292 ft / 89 m (AMSL)
Location 40.886000° 14.290800°
Runways 1
Magnetic Variation 3.974° E

METAR

LIRN 221250Z 20009KT 160V230 CAVOK 28/19 Q1013 NOSIG

Decode

TAF

TAF LIRN 221100Z 2212/2312 23010KT 9999 FEW020 BECMG 2218/2220 VRB05KT BECMG 2308/2310 22010KT

Decode

Departure Runways

ID Width Length Bearing (true/mag) Surface Threshold Overrun Markings Lighting
06 148 ft / 45 m 8,630 ft / 2,630 m 58.04° / 54.06° ASPHALT 1,312 ft / 400 m 217 ft / 66 m PREC-APP CENTERLINE EDGE THRESHOLD MALSF REIL-OMNI
24 148 ft / 45 m 8,630 ft / 2,630 m 238.05° / 234.08° ASPHALT 607 ft / 185 m 230 ft / 70 m PREC-APP CENTERLINE EDGE THRESHOLD MALSF REIL-OMNI

LIMF

Details ICAO LIMF (TRN)
Name Torino-Caselle "Sandro Pertini"
Region Italy
Timezone Europe/Rome (UTC+2.0)
Stats Elevation 987 ft / 301 m (AMSL)
Location 45.200800° 7.649640°
Runways 1
Magnetic Variation 2.879° E

METAR

LIMF 221250Z 21004KT 160V280 9999 FEW030 27/13 Q1010

Decode

TAF

TAF LIMF 221100Z 2212/2312 VRB05KT 9999 SCT030 TEMPO 2213/2222 3000 TSRA

Decode

Destination Runways

ID Width Length Bearing (true/mag) Surface Threshold Overrun Markings Lighting
18 197 ft / 60 m 10,837 ft / 3,303 m 182.56° / 179.68° ASPHALT 2,372 ft / 723 m 1,647 ft / 502 m APP CENTERLINE EDGE THRESHOLD TDZ REIL-OMNI
36 197 ft / 60 m 10,837 ft / 3,303 m 2.56° / 359.68° ASPHALT 1,135 ft / 346 m 0 ft / 0 m PREC-APP CENTERLINE EDGE THRESHOLD ALSF-II REIL-OMNI

Approach Navaids

Runway Type Ident Frequency Range Bearing (true/mag) Slope Elevation
36 MM MM - - 2.56° / 359.68 ° - 989 ft / 301 m (AMSL)
36 GS ITOC 108.70 MHz 10 nm / 19 km 2.56° / 359.68 ° 3.00° 988 ft / 301 m (AMSL)
36 DME ITOC 108.70 MHz 25 nm / 46 km - - 989 ft / 301 m (AMSL)
36 OM OM - - 2.56° / 359.68 ° - 989 ft / 301 m (AMSL)

Popular Alternatives